createdAt,value
2022-08-08T00:01:00.014Z,5.07
2022-08-08T00:03:28.468Z,5.23
2022-08-08T00:06:35.523Z,4.53
2022-08-08T00:09:58.826Z,4.37
2022-08-08T00:13:02.608Z,4.83
2022-08-08T00:16:22.537Z,4.93
2022-08-08T00:19:28.047Z,4.70
2022-08-08T00:22:28.899Z,4.27
2022-08-08T00:25:28.648Z,5.00
2022-08-08T00:28:44.450Z,4.73
2022-08-08T00:32:20.362Z,4.30
2022-08-08T00:35:24.677Z,4.17
2022-08-08T00:38:32.222Z,4.77
2022-08-08T00:41:54.691Z,4.53
2022-08-08T00:45:21.613Z,4.57
2022-08-08T00:49:02.796Z,4.47
2022-08-08T00:52:01.495Z,4.57
2022-08-08T00:55:53.487Z,4.57
2022-08-08T00:59:07.886Z,4.63
2022-08-08T01:03:58.128Z,4.43
2022-08-08T01:05:59.354Z,4.40
2022-08-08T01:09:36.471Z,4.90
2022-08-08T01:12:29.459Z,4.70
2022-08-08T01:15:43.859Z,4.80
2022-08-08T01:18:53.154Z,4.07
2022-08-08T01:22:23.655Z,4.07
2022-08-08T01:25:54.243Z,4.03
2022-08-08T01:29:14.979Z,4.30
2022-08-08T01:32:38.773Z,4.47
2022-08-08T01:36:01.174Z,4.50
2022-08-08T01:39:18.473Z,4.60
2022-08-08T01:42:29.260Z,4.17
2022-08-08T01:45:42.175Z,4.57
2022-08-08T01:49:10.958Z,4.60
2022-08-08T01:54:33.092Z,4.30
2022-08-08T01:56:29.584Z,4.47
2022-08-08T01:59:49.281Z,4.70
2022-08-08T02:03:55.351Z,4.47
2022-08-08T02:06:36.658Z,4.30
2022-08-08T02:10:01.996Z,4.33
2022-08-08T02:12:57.609Z,4.17
2022-08-08T02:16:20.615Z,4.10
2022-08-08T02:20:07.507Z,4.17
2022-08-08T02:23:19.625Z,4.30
2022-08-08T02:26:16.403Z,4.10
2022-08-08T02:30:01.761Z,4.13
2022-08-08T02:33:13.154Z,3.80
2022-08-08T02:36:28.780Z,4.00
2022-08-08T02:40:00.041Z,3.80
2022-08-08T02:42:47.538Z,4.13
2022-08-08T02:46:22.269Z,4.40
2022-08-08T02:49:50.712Z,4.33
2022-08-08T02:53:17.037Z,4.23
2022-08-08T02:56:43.552Z,4.63
2022-08-08T03:00:26.581Z,4.13
2022-08-08T03:05:01.009Z,4.20
2022-08-08T03:07:13.384Z,4.43
2022-08-08T03:10:44.397Z,4.63
2022-08-08T03:16:02.087Z,4.80
2022-08-08T03:17:09.220Z,4.43
2022-08-08T03:20:08.026Z,4.83
2022-08-08T03:22:57.103Z,4.70
2022-08-08T03:25:50.197Z,4.33
2022-08-08T03:28:53.002Z,4.23
2022-08-08T03:32:06.137Z,4.77
2022-08-08T03:34:54.183Z,4.10
2022-08-08T03:38:53.020Z,5.47
2022-08-08T03:40:52.689Z,4.80
2022-08-08T03:43:39.890Z,4.60
2022-08-08T03:46:32.487Z,4.70
2022-08-08T03:49:57.941Z,4.70
2022-08-08T03:52:35.426Z,4.67
2022-08-08T03:55:55.655Z,4.40
2022-08-08T03:58:37.779Z,4.30
2022-08-08T04:02:12.417Z,4.73
2022-08-08T04:04:45.751Z,4.53
2022-08-08T04:07:40.927Z,4.47
2022-08-08T04:10:32.298Z,4.43
2022-08-08T04:13:22.824Z,4.57
2022-08-08T04:16:10.477Z,4.70
2022-08-08T04:18:58.575Z,4.20
2022-08-08T04:21:45.619Z,4.50
2022-08-08T04:24:32.891Z,4.57
2022-08-08T04:27:54.638Z,4.80
2022-08-08T04:30:27.835Z,4.53
2022-08-08T04:33:15.593Z,4.40
2022-08-08T04:36:02.947Z,4.80
2022-08-08T04:39:20.314Z,4.80
2022-08-08T05:40:58.180Z,5.13
2022-08-08T05:44:03.293Z,4.63
2022-08-08T05:46:53.587Z,5.05
2022-08-08T05:49:56.060Z,4.68
2022-08-08T05:52:43.987Z,4.73
2022-08-08T05:56:09.655Z,4.70
2022-08-08T05:58:57.045Z,5.22
2022-08-08T06:01:58.056Z,5.38
2022-08-08T06:04:56.035Z,4.55
2022-08-08T06:07:46.089Z,4.68
2022-08-08T06:10:34.624Z,4.85
2022-08-08T06:13:23.391Z,4.45
2022-08-08T06:16:13.155Z,4.30
2022-08-08T06:19:02.089Z,4.65
2022-08-08T06:21:57.397Z,4.10
2022-08-08T06:24:50.965Z,4.55
2022-08-08T06:27:51.822Z,4.40
2022-08-08T06:30:41.371Z,4.30
2022-08-08T06:34:26.406Z,4.10
2022-08-08T06:37:24.482Z,3.53
2022-08-08T06:40:16.404Z,3.63
2022-08-08T06:43:09.953Z,3.22
2022-08-08T06:45:57.942Z,3.00
2022-08-08T06:48:45.974Z,3.03
2022-08-08T06:51:49.048Z,3.15
2022-08-08T06:54:42.277Z,2.78
2022-08-08T06:57:54.814Z,2.55
2022-08-08T07:00:40.978Z,2.25
2022-08-08T07:04:38.514Z,2.50
2022-08-08T07:07:11.188Z,2.00
2022-08-08T07:10:08.543Z,2.22
2022-08-08T07:13:07.951Z,2.30
2022-08-08T07:16:28.878Z,2.60
2022-08-08T07:19:29.957Z,3.25
2022-08-08T07:22:24.748Z,3.60
2022-08-08T07:25:14.557Z,3.60
2022-08-08T07:28:19.887Z,3.10
2022-08-08T07:31:07.210Z,3.40
2022-08-08T07:33:59.619Z,2.95
2022-08-08T07:36:50.115Z,2.80
2022-08-08T07:39:29.379Z,2.42
2022-08-08T07:42:05.145Z,3.38
2022-08-08T07:44:40.246Z,3.67
2022-08-08T07:47:09.424Z,3.33
2022-08-08T07:49:40.230Z,3.88
2022-08-08T07:52:19.604Z,3.80
2022-08-08T07:55:02.749Z,3.65
2022-08-08T07:57:50.749Z,3.40
2022-08-08T08:00:19.143Z,3.10
2022-08-08T08:03:16.787Z,3.80
2022-08-08T08:05:51.745Z,3.17
2022-08-08T08:08:29.179Z,3.05
2022-08-08T08:10:57.970Z,3.10
2022-08-08T08:13:42.749Z,2.72
2022-08-08T08:16:28.331Z,3.58
2022-08-08T08:19:03.034Z,3.00
2022-08-08T08:21:56.837Z,3.20
2022-08-08T08:24:26.707Z,3.97
2022-08-08T08:27:03.630Z,5.00
2022-08-08T08:29:31.192Z,4.93
2022-08-08T08:32:03.169Z,5.15
2022-08-08T08:34:33.665Z,4.80
2022-08-08T08:37:03.123Z,4.30
2022-08-08T08:39:59.977Z,3.03
2022-08-08T08:42:31.964Z,3.30
2022-08-08T08:45:10.170Z,2.92
2022-08-08T08:47:52.961Z,3.30
2022-08-08T08:50:34.004Z,3.30
2022-08-08T08:53:27.624Z,2.15
2022-08-08T08:56:02.061Z,2.33
2022-08-08T08:58:37.581Z,2.30
2022-08-08T09:01:10.103Z,2.60
2022-08-08T09:03:47.562Z,2.40
2022-08-08T09:06:28.241Z,2.22
2022-08-08T09:09:26.092Z,2.15
2022-08-08T09:12:06.339Z,2.33
2022-08-08T09:14:35.203Z,1.98
2022-08-08T09:17:09.812Z,2.28
2022-08-08T09:22:02.279Z,2.58
2022-08-08T09:22:29.295Z,2.22
2022-08-08T09:24:56.787Z,2.30
2022-08-08T09:27:57.650Z,2.50
2022-08-08T09:30:17.281Z,2.10
2022-08-08T09:32:50.310Z,2.00
2022-08-08T09:35:50.083Z,2.50
2022-08-08T09:38:32.047Z,2.38
2022-08-08T09:41:05.403Z,2.20
2022-08-08T09:44:05.832Z,2.20
2022-08-08T09:46:30.994Z,1.92
2022-08-08T09:49:17.999Z,2.00
2022-08-08T09:52:06.466Z,2.00
2022-08-08T09:54:44.059Z,2.15
2022-08-08T09:57:16.456Z,2.30
2022-08-08T10:00:08.174Z,2.50
2022-08-08T10:02:42.199Z,2.40
2022-08-08T10:05:22.922Z,2.60
2022-08-08T10:07:52.371Z,2.72
2022-08-08T10:10:32.560Z,3.15
2022-08-08T10:13:14.018Z,2.28
2022-08-08T10:15:59.373Z,2.60
2022-08-08T10:18:36.703Z,2.83
2022-08-08T10:21:24.800Z,2.55
2022-08-08T10:23:59.684Z,2.58
2022-08-08T10:26:52.311Z,2.58
2022-08-08T10:29:59.217Z,2.80
2022-08-08T10:32:37.717Z,2.50
2022-08-08T10:36:01.922Z,2.17
2022-08-08T10:38:08.033Z,2.25
2022-08-08T10:40:38.405Z,1.90
2022-08-08T10:43:06.710Z,2.28
2022-08-08T10:45:55.700Z,2.22
2022-08-08T10:48:34.108Z,2.13
2022-08-08T10:51:13.262Z,2.30
2022-08-08T10:53:56.721Z,2.03
2022-08-08T10:56:27.902Z,2.10
2022-08-08T10:59:01.943Z,2.00
2022-08-08T11:01:33.323Z,1.90
2022-08-08T11:04:04.445Z,1.90
2022-08-08T11:06:34.720Z,1.77
2022-08-08T11:09:19.282Z,1.98
2022-08-08T11:12:05.731Z,1.80
2022-08-08T11:14:34.965Z,1.83
2022-08-08T11:17:04.012Z,1.92
2022-08-08T11:19:34.757Z,1.83
2022-08-08T11:22:04.460Z,2.17
2022-08-08T11:24:35.656Z,2.00
2022-08-08T11:27:19.937Z,1.75
2022-08-08T11:30:20.110Z,2.10
2022-08-08T11:32:42.978Z,1.95
2022-08-08T11:35:27.162Z,1.70
2022-08-08T11:38:35.087Z,1.60
2022-08-08T11:40:52.625Z,1.45
2022-08-08T11:43:23.823Z,1.60
2022-08-08T11:46:09.530Z,1.35
2022-08-08T11:48:41.655Z,1.60
2022-08-08T11:51:30.487Z,1.50
2022-08-08T11:54:02.132Z,1.63
2022-08-08T11:56:35.082Z,1.67
2022-08-08T11:59:10.165Z,1.50
2022-08-08T12:01:37.763Z,1.40
2022-08-08T12:04:07.657Z,1.55
2022-08-08T12:06:34.830Z,1.20
2022-08-08T12:09:10.028Z,1.23
2022-08-08T12:11:46.046Z,1.50
2022-08-08T12:14:28.980Z,1.25
2022-08-08T12:16:57.216Z,1.10
2022-08-08T12:19:31.489Z,1.40
2022-08-08T12:22:20.993Z,1.40
2022-08-08T12:24:54.192Z,1.30
2022-08-08T12:27:26.560Z,1.20
2022-08-08T12:29:59.898Z,1.40
2022-08-08T12:32:31.462Z,1.17
2022-08-08T12:35:13.251Z,1.30
2022-08-08T12:38:01.284Z,1.58
2022-08-08T12:40:44.413Z,1.05
2022-08-08T12:43:46.450Z,1.33
2022-08-08T12:46:26.510Z,1.20
2022-08-08T12:49:20.698Z,1.30
2022-08-08T12:51:50.111Z,1.40
2022-08-08T12:54:29.035Z,1.38
2022-08-08T12:56:56.959Z,1.20
2022-08-08T12:59:45.079Z,1.40
2022-08-08T13:02:30.726Z,1.30
2022-08-08T13:05:06.091Z,1.20
2022-08-08T13:08:04.126Z,1.40
2022-08-08T13:10:55.678Z,1.30
2022-08-08T13:13:35.280Z,1.30
2022-08-08T13:16:25.987Z,1.20
2022-08-08T13:19:06.551Z,1.50
2022-08-08T13:21:52.660Z,1.48
2022-08-08T13:24:42.384Z,1.45
2022-08-08T13:27:29.991Z,1.40
2022-08-08T13:30:06.033Z,1.55
2022-08-08T13:32:37.675Z,1.50
2022-08-08T13:35:11.720Z,1.75
2022-08-08T13:38:06.297Z,1.77
2022-08-08T13:40:35.901Z,1.67
2022-08-08T13:43:08.591Z,1.90
2022-08-08T13:45:36.826Z,1.77
2022-08-08T13:48:12.311Z,1.70
2022-08-08T13:50:52.033Z,1.83
2022-08-08T13:53:31.541Z,1.73
2022-08-08T13:56:05.189Z,1.88
2022-08-08T13:58:33.198Z,1.70
2022-08-08T14:01:17.527Z,1.60
2022-08-08T14:03:56.344Z,1.83
2022-08-08T14:06:33.230Z,1.88
2022-08-08T14:09:24.954Z,1.70
2022-08-08T14:11:48.910Z,1.85
2022-08-08T14:14:20.566Z,1.88
2022-08-08T14:16:52.535Z,1.70
2022-08-08T14:19:57.989Z,1.85
2022-08-08T14:22:23.463Z,1.80
2022-08-08T14:25:00.460Z,2.20
2022-08-08T14:27:40.393Z,2.05
2022-08-08T14:30:18.163Z,1.88
2022-08-08T14:32:53.206Z,1.58
2022-08-08T14:35:35.352Z,1.77
2022-08-08T14:38:09.406Z,2.00
2022-08-08T14:40:40.480Z,1.70
2022-08-08T14:43:31.471Z,1.70
2022-08-08T14:46:06.369Z,1.70
2022-08-08T14:48:42.735Z,1.98
2022-08-08T14:51:52.179Z,2.08
2022-08-08T14:54:28.396Z,2.17
2022-08-08T14:56:57.948Z,1.90
2022-08-08T14:59:43.771Z,1.85
2022-08-08T15:02:14.122Z,2.25
2022-08-08T15:04:43.220Z,1.80
2022-08-08T15:07:22.819Z,1.63
2022-08-08T15:09:52.525Z,2.10
2022-08-08T15:12:27.120Z,1.70
2022-08-08T15:14:55.975Z,1.70
2022-08-08T15:17:24.202Z,1.50
2022-08-08T15:19:53.635Z,1.92
2022-08-08T15:22:34.020Z,1.75
2022-08-08T15:25:01.635Z,1.65
2022-08-08T15:28:03.841Z,1.75
2022-08-08T15:30:23.498Z,1.60
2022-08-08T15:32:54.095Z,1.80
2022-08-08T15:35:22.716Z,1.83
2022-08-08T15:37:49.653Z,1.65
2022-08-08T15:40:17.022Z,1.65
2022-08-08T15:42:47.606Z,1.55
2022-08-08T15:45:17.541Z,1.60
2022-08-08T15:48:04.307Z,1.77
2022-08-08T15:50:57.347Z,1.83
2022-08-08T15:53:33.077Z,2.15
2022-08-08T15:56:12.884Z,1.90
2022-08-08T15:58:48.253Z,2.08
2022-08-08T16:01:16.501Z,1.70
2022-08-08T16:03:45.990Z,2.08
2022-08-08T16:06:28.274Z,2.10
2022-08-08T16:13:00.977Z,1.70
2022-08-08T16:13:11.972Z,2.05
2022-08-08T16:14:33.739Z,1.88
2022-08-08T16:17:01.426Z,1.90
2022-08-08T16:19:59.671Z,1.85
2022-08-08T16:22:28.653Z,1.90
2022-08-08T16:24:58.143Z,1.63
2022-08-08T16:27:25.209Z,2.00
2022-08-08T16:30:13.076Z,1.92
2022-08-08T16:32:41.801Z,1.90
2022-08-08T16:35:09.795Z,1.80
2022-08-08T16:37:40.282Z,1.52
2022-08-08T16:40:11.634Z,2.05
2022-08-08T16:42:40.397Z,1.58
2022-08-08T16:45:11.409Z,1.73
2022-08-08T16:47:55.017Z,1.60
2022-08-08T16:50:21.909Z,1.67
2022-08-08T16:55:06.800Z,1.90
2022-08-08T16:55:55.260Z,1.83
2022-08-08T16:58:27.122Z,1.65
2022-08-08T17:01:05.580Z,1.80
2022-08-08T17:04:00.801Z,1.63
2022-08-08T17:06:37.591Z,2.53
2022-08-08T17:09:06.822Z,1.80
2022-08-08T17:11:39.149Z,1.98
2022-08-08T17:14:18.842Z,1.75
2022-08-08T17:16:57.204Z,1.85
2022-08-08T17:19:29.893Z,1.67
2022-08-08T17:22:01.320Z,1.80
2022-08-08T17:24:31.099Z,1.45
2022-08-08T17:27:03.250Z,1.83
2022-08-08T17:29:33.540Z,1.85
2022-08-08T17:32:01.951Z,2.10
2022-08-08T17:34:48.940Z,1.90
2022-08-08T17:37:16.156Z,1.60
2022-08-08T17:40:05.808Z,1.85
2022-08-08T17:42:33.181Z,1.92
2022-08-08T17:45:00.242Z,2.38
2022-08-08T17:47:40.679Z,1.80
2022-08-08T17:50:09.646Z,1.80
2022-08-08T17:52:38.089Z,1.92
2022-08-08T17:56:03.272Z,2.42
2022-08-08T17:57:53.641Z,2.10
2022-08-08T18:00:25.938Z,1.90
2022-08-08T18:03:08.279Z,2.20
2022-08-08T18:05:44.036Z,2.03
2022-08-08T18:08:36.895Z,1.92
2022-08-08T18:11:05.625Z,2.13
2022-08-08T18:13:34.796Z,1.90
2022-08-08T18:16:09.035Z,2.08
2022-08-08T18:18:42.732Z,1.70
2022-08-08T18:21:24.682Z,1.98
2022-08-08T18:24:03.479Z,1.85
2022-08-08T18:26:33.633Z,1.85
2022-08-08T18:29:02.736Z,2.20
2022-08-08T18:31:33.301Z,1.85
2022-08-08T18:34:25.027Z,1.92
2022-08-08T18:36:47.770Z,1.60
2022-08-08T18:39:28.624Z,1.85
2022-08-08T18:41:59.648Z,1.85
2022-08-08T18:44:32.939Z,1.98
2022-08-08T18:47:02.303Z,2.05
2022-08-08T18:49:40.952Z,1.83
2022-08-08T18:52:22.774Z,1.90
2022-08-08T18:55:00.217Z,2.08
2022-08-08T18:57:40.716Z,2.03
2022-08-08T19:00:16.601Z,1.70
2022-08-08T19:02:56.375Z,2.03
2022-08-08T19:05:31.767Z,1.75
2022-08-08T19:08:34.591Z,2.38
2022-08-08T19:11:02.350Z,2.10
2022-08-08T19:13:38.559Z,2.10
2022-08-08T19:16:19.930Z,2.10
2022-08-08T19:19:00.208Z,2.10
2022-08-08T19:21:47.805Z,2.15
2022-08-08T19:24:39.330Z,1.85
2022-08-08T19:27:04.724Z,2.03
2022-08-08T19:29:34.574Z,2.10
2022-08-08T19:32:12.695Z,1.70
2022-08-08T19:34:41.767Z,1.73
2022-08-08T19:37:16.443Z,2.20
2022-08-08T19:39:45.606Z,2.10
2022-08-08T19:42:13.546Z,1.90
2022-08-08T19:44:45.633Z,1.70
2022-08-08T19:47:14.468Z,1.85
2022-08-08T19:49:43.323Z,2.40
2022-08-08T19:52:13.285Z,1.85
2022-08-08T19:54:41.530Z,1.70
2022-08-08T19:57:11.256Z,1.88
2022-08-08T19:59:42.003Z,2.22
2022-08-08T20:02:10.771Z,2.10
2022-08-08T20:04:38.807Z,2.03
2022-08-08T20:08:39.460Z,2.40
2022-08-08T20:09:58.559Z,2.10
2022-08-08T20:12:32.870Z,2.58
2022-08-08T20:15:14.209Z,2.00
2022-08-08T20:17:44.079Z,2.38
2022-08-08T20:20:16.174Z,2.00
2022-08-08T20:22:52.666Z,2.15
2022-08-08T20:25:24.523Z,2.10
2022-08-08T20:27:54.016Z,2.30
2022-08-08T20:30:56.102Z,2.00
2022-08-08T20:33:20.074Z,2.05
2022-08-08T20:35:58.215Z,2.28
2022-08-08T20:38:32.010Z,2.00
2022-08-08T20:40:59.659Z,2.20
2022-08-08T20:43:43.501Z,2.17
2022-08-08T20:46:14.613Z,2.40
2022-08-08T20:48:41.619Z,2.10
2022-08-08T20:51:08.774Z,2.10
2022-08-08T20:53:58.793Z,2.08
2022-08-08T20:56:35.415Z,2.15
2022-08-08T20:59:12.331Z,2.20
2022-08-08T21:02:05.759Z,2.33
2022-08-08T21:04:27.911Z,1.95
2022-08-08T21:06:55.407Z,2.20
2022-08-08T21:09:22.670Z,2.28
2022-08-08T21:11:51.359Z,2.28
2022-08-08T21:14:33.376Z,2.10
2022-08-08T21:17:06.269Z,2.47
2022-08-08T21:19:45.210Z,2.00
2022-08-08T21:22:14.396Z,2.25
2022-08-08T21:24:52.549Z,1.95
2022-08-08T21:27:38.860Z,2.30
2022-08-08T21:30:19.411Z,2.20
2022-08-08T21:32:52.379Z,2.22
2022-08-08T21:36:15.142Z,2.15
2022-08-08T21:38:16.509Z,2.10
2022-08-08T21:40:56.055Z,2.17
2022-08-08T21:43:33.299Z,2.00
2022-08-08T21:48:06.097Z,2.47
2022-08-08T21:48:56.789Z,2.50
2022-08-08T21:54:17.532Z,2.67
2022-08-08T21:54:54.810Z,2.22
2022-08-08T21:57:04.916Z,2.22
2022-08-08T22:00:02.928Z,2.38
2022-08-08T22:02:19.615Z,2.40
2022-08-08T22:04:51.114Z,2.42
2022-08-08T22:07:18.455Z,2.38
2022-08-08T22:09:46.140Z,2.40
2022-08-08T22:12:15.027Z,2.60
2022-08-08T22:14:49.887Z,2.33
2022-08-08T22:17:18.254Z,2.00
2022-08-08T22:20:13.088Z,2.42
2022-08-08T22:22:38.138Z,2.30
2022-08-08T22:25:19.669Z,2.60
2022-08-08T22:28:02.983Z,2.60
2022-08-08T22:30:33.457Z,2.42
2022-08-08T22:33:01.525Z,2.35
2022-08-08T22:36:04.034Z,2.28
2022-08-08T22:38:17.459Z,2.30
2022-08-08T22:40:45.006Z,2.42
2022-08-08T22:43:15.818Z,2.33
2022-08-08T22:45:43.923Z,2.75
2022-08-08T22:48:13.995Z,2.25
2022-08-08T22:50:41.132Z,2.25
2022-08-08T22:54:31.157Z,2.65
2022-08-08T22:55:57.791Z,2.50
2022-08-08T22:58:28.350Z,2.50
2022-08-08T23:00:59.800Z,2.42
2022-08-08T23:03:34.167Z,2.58
2022-08-08T23:06:16.351Z,2.70
2022-08-08T23:08:54.126Z,2.20
2022-08-08T23:11:22.305Z,2.35
2022-08-08T23:13:53.558Z,2.50
2022-08-08T23:16:38.674Z,2.40
2022-08-08T23:19:10.152Z,2.47
2022-08-08T23:21:38.119Z,2.50
2022-08-08T23:24:06.962Z,2.42
2022-08-08T23:26:34.366Z,2.55
2022-08-08T23:29:02.114Z,2.30
2022-08-08T23:31:29.049Z,2.30
2022-08-08T23:34:18.015Z,2.60
2022-08-08T23:36:46.778Z,2.50
2022-08-08T23:39:14.607Z,2.38
2022-08-08T23:41:47.249Z,2.33
2022-08-08T23:44:18.509Z,2.00
2022-08-08T23:49:08.352Z,2.38
2022-08-08T23:49:34.174Z,2.20
2022-08-08T23:52:04.500Z,2.17
2022-08-08T23:54:43.130Z,2.15
2022-08-08T23:57:27.716Z,2.10
